Terminal Aerodrome Forecast
Issued by NWS Jackson, MS

Home | Current Version | Previous Version | Text Only | Print | Product List | Glossary On
Versions: 1 2 3 4 5 6 7 8 9 10 11 12 13 14
000
FTUS44 KJAN 271121
TAFJAN
TAF
KJAN 271121Z 2712/2812 15006KT P6SM VCSH BKN015 OVC050
     FM271300 14006KT 3SM SHRA BR VCTS BKN012CB OVC020
     FM271600 15008KT 6SM -SHRA BR BKN010 BKN030
     FM271900 13008KT P6SM SCT030 BKN100
     FM280800 15010KT 4SM BR BKN010=

USA.gov is the U.S. government's official web portal to all federal, state and local government web resources and services.